createdAt,value
2022-09-26T00:01:37.920Z,29.70
2022-09-26T00:04:26.026Z,27.30
2022-09-26T00:06:57.290Z,33.10
2022-09-26T00:09:26.881Z,27.10
2022-09-26T00:11:54.890Z,27.30
2022-09-26T00:14:26.501Z,23.00
2022-09-26T00:16:55.116Z,28.00
2022-09-26T00:19:23.499Z,26.00
2022-09-26T00:21:51.863Z,28.60
2022-09-26T00:24:20.167Z,26.60
2022-09-26T00:26:48.111Z,26.90
2022-09-26T00:29:16.411Z,26.60
2022-09-26T00:31:47.582Z,30.50
2022-09-26T00:34:18.252Z,28.30
2022-09-26T00:36:46.169Z,26.10
2022-09-26T00:39:16.355Z,26.50
2022-09-26T00:41:45.470Z,23.00
2022-09-26T00:44:38.543Z,23.80
2022-09-26T00:47:14.435Z,25.30
2022-09-26T00:49:44.722Z,22.10
2022-09-26T00:52:20.404Z,42.10
2022-09-26T00:54:52.008Z,37.90
2022-09-26T00:57:25.212Z,29.90
2022-09-26T00:59:58.340Z,16.50
2022-09-26T01:02:29.064Z,21.00
2022-09-26T01:04:59.188Z,17.40
2022-09-26T01:07:29.808Z,27.00
2022-09-26T01:09:58.761Z,17.00
2022-09-26T01:12:26.772Z,19.50
2022-09-26T01:14:57.130Z,21.50
2022-09-26T01:17:26.413Z,18.70
2022-09-26T01:20:10.242Z,26.90
2022-09-26T01:23:03.073Z,20.20
2022-09-26T01:26:03.286Z,21.70
2022-09-26T01:29:18.972Z,19.40
2022-09-26T01:32:27.984Z,27.90
2022-09-26T01:35:02.323Z,21.70
2022-09-26T01:37:51.595Z,19.40
2022-09-26T01:40:50.490Z,25.20
2022-09-26T01:43:20.191Z,21.80
2022-09-26T01:45:59.522Z,21.60
2022-09-26T01:48:53.061Z,19.00
2022-09-26T01:51:27.741Z,21.90
2022-09-26T01:54:03.156Z,17.50
2022-09-26T01:56:36.966Z,20.10
2022-09-26T01:59:11.392Z,20.10
2022-09-26T02:02:30.401Z,18.90
2022-09-26T02:05:06.077Z,19.00
2022-09-26T02:07:41.525Z,18.30
2022-09-26T02:10:22.292Z,19.90
2022-09-26T02:12:58.000Z,16.20
2022-09-26T02:15:27.661Z,17.40
2022-09-26T02:18:06.437Z,16.70
2022-09-26T02:20:38.265Z,20.10
2022-09-26T02:23:06.549Z,15.30
2022-09-26T02:25:34.588Z,17.80
2022-09-26T02:28:05.042Z,17.00
2022-09-26T02:30:33.122Z,23.20
2022-09-26T02:33:02.255Z,21.00
2022-09-26T02:35:50.554Z,16.80
2022-09-26T02:38:18.562Z,25.00
2022-09-26T02:41:07.048Z,24.70
2022-09-26T02:43:53.656Z,21.40
2022-09-26T02:46:43.883Z,19.90
2022-09-26T02:49:21.794Z,25.70
2022-09-26T02:51:54.383Z,18.80
2022-09-26T02:54:33.794Z,19.50
2022-09-26T02:57:13.218Z,18.10
2022-09-26T03:00:01.201Z,18.20
2022-09-26T03:02:55.206Z,16.00
2022-09-26T03:05:27.838Z,16.70
2022-09-26T03:08:03.171Z,18.70
2022-09-26T03:10:33.066Z,18.30
2022-09-26T03:13:08.928Z,16.60
2022-09-26T03:15:40.931Z,18.10
2022-09-26T03:18:14.995Z,16.20
2022-09-26T03:20:44.807Z,23.80
2022-09-26T03:23:13.597Z,15.90
2022-09-26T03:25:42.984Z,17.50
2022-09-26T03:28:12.416Z,23.20
2022-09-26T03:30:40.618Z,17.70
2022-09-26T03:33:27.544Z,19.70
2022-09-26T03:35:56.926Z,22.50
2022-09-26T03:38:24.903Z,26.30
2022-09-26T03:43:50.556Z,27.90
2022-09-26T03:46:18.942Z,22.70
2022-09-26T03:48:47.822Z,27.50
2022-09-26T03:51:21.422Z,23.10
2022-09-26T03:53:50.469Z,26.60
2022-09-26T03:56:20.898Z,21.00
2022-09-26T03:58:51.596Z,24.40
2022-09-26T04:01:22.643Z,22.10
2022-09-26T04:03:51.400Z,22.80
2022-09-26T04:06:21.832Z,17.80
2022-09-26T04:08:52.681Z,26.20
2022-09-26T04:11:23.118Z,25.00
2022-09-26T04:13:53.789Z,23.50
2022-09-26T04:16:24.700Z,22.10
2022-09-26T04:18:57.991Z,20.00
2022-09-26T04:21:27.441Z,21.20
2022-09-26T04:23:56.263Z,19.00
2022-09-26T04:26:24.867Z,16.80
2022-09-26T04:28:55.982Z,21.00
2022-09-26T04:31:27.917Z,18.30
2022-09-26T04:34:01.301Z,19.00
2022-09-26T04:36:29.113Z,18.00
2022-09-26T04:39:00.767Z,21.20
2022-09-26T04:41:31.651Z,17.30
2022-09-26T04:44:02.077Z,17.70
2022-09-26T04:46:31.591Z,20.20
2022-09-26T04:49:01.807Z,16.50
2022-09-26T04:51:31.788Z,20.70
2022-09-26T04:54:00.393Z,25.50
2022-09-26T04:56:30.730Z,20.60
2022-09-26T04:59:00.261Z,22.70
2022-09-26T05:01:34.063Z,20.10
2022-09-26T05:04:10.107Z,31.50
2022-09-26T05:06:39.674Z,34.00
2022-09-26T05:09:10.641Z,32.90
2022-09-26T05:11:58.801Z,26.20
2022-09-26T05:14:28.081Z,25.50
2022-09-26T05:16:57.917Z,29.80
2022-09-26T05:19:30.913Z,28.00
2022-09-26T05:22:20.856Z,27.80
2022-09-26T05:25:07.449Z,22.40
2022-09-26T05:27:36.806Z,17.40
2022-09-26T05:30:05.260Z,16.80
2022-09-26T05:32:34.313Z,20.90
2022-09-26T05:35:05.339Z,18.40
2022-09-26T05:37:41.364Z,20.10
2022-09-26T05:40:31.923Z,26.40
2022-09-26T05:43:02.781Z,14.90
2022-09-26T05:45:31.863Z,20.20
2022-09-26T05:48:02.005Z,15.50
2022-09-26T05:50:30.199Z,15.00
2022-09-26T05:52:59.407Z,16.00
2022-09-26T05:55:29.462Z,17.60
2022-09-26T05:58:06.412Z,19.50
2022-09-26T06:00:52.790Z,18.00
2022-09-26T06:03:21.030Z,23.60
2022-09-26T06:06:11.374Z,23.90
2022-09-26T06:08:40.316Z,19.40
2022-09-26T06:11:33.035Z,15.80
2022-09-26T06:14:03.256Z,13.10
2022-09-26T06:16:33.130Z,20.20
2022-09-26T06:19:02.867Z,13.40
2022-09-26T06:21:31.188Z,14.40
2022-09-26T06:24:06.614Z,17.20
2022-09-26T06:26:35.901Z,15.40
2022-09-26T06:29:04.758Z,17.60
2022-09-26T06:31:36.071Z,19.40
2022-09-26T06:34:14.964Z,18.80
2022-09-26T06:39:19.680Z,13.60
2022-09-26T06:41:48.602Z,17.50
2022-09-26T06:44:30.525Z,14.30
2022-09-26T06:47:18.130Z,21.50
2022-09-26T06:49:46.594Z,16.90
2022-09-26T06:52:26.733Z,16.40
2022-09-26T06:54:55.529Z,16.10
2022-09-26T06:57:23.567Z,18.40
2022-09-26T06:59:52.446Z,17.00
2022-09-26T07:02:27.722Z,20.20
2022-09-26T07:05:20.680Z,13.50
2022-09-26T07:07:55.159Z,19.70
2022-09-26T07:10:30.369Z,16.60
2022-09-26T07:13:07.271Z,12.80
2022-09-26T07:15:37.176Z,12.00
2022-09-26T07:18:18.753Z,15.60
2022-09-26T07:21:10.928Z,14.50
2022-09-26T07:23:50.648Z,13.50
2022-09-26T07:26:21.097Z,12.00
2022-09-26T07:28:54.331Z,21.60
2022-09-26T07:31:43.310Z,15.10
2022-09-26T07:34:18.829Z,23.00
2022-09-26T07:36:47.660Z,12.70
2022-09-26T07:39:16.446Z,21.20
2022-09-26T07:41:46.947Z,22.80
2022-09-26T07:47:22.364Z,22.00
2022-09-26T07:50:09.473Z,18.40
2022-09-26T07:52:57.845Z,16.60
2022-09-26T07:55:27.436Z,31.90
2022-09-26T07:58:13.659Z,18.10
2022-09-26T08:01:07.458Z,14.30
2022-09-26T08:03:54.520Z,15.60
2022-09-26T08:06:37.129Z,14.50
2022-09-26T08:09:05.430Z,17.70
2022-09-26T08:12:08.563Z,13.60
2022-09-26T08:14:59.635Z,22.20
2022-09-26T08:17:38.345Z,14.20
2022-09-26T08:20:07.232Z,19.50
2022-09-26T08:22:35.481Z,20.90
2022-09-26T08:25:06.649Z,14.20
2022-09-26T08:28:13.061Z,10.40
2022-09-26T08:30:42.410Z,14.00
2022-09-26T08:33:12.636Z,10.20
2022-09-26T08:35:41.129Z,11.50
2022-09-26T08:38:32.788Z,10.80
2022-09-26T08:41:44.485Z,12.90
2022-09-26T08:44:57.336Z,9.90
2022-09-26T08:47:54.945Z,8.90
2022-09-26T08:50:52.698Z,20.90
2022-09-26T08:53:29.700Z,10.80
2022-09-26T08:58:43.013Z,11.90
2022-09-26T09:01:23.568Z,7.40
2022-09-26T09:04:47.233Z,10.10
2022-09-26T09:07:26.707Z,14.00
2022-09-26T09:10:02.042Z,14.10
2022-09-26T09:12:52.285Z,10.40
2022-09-26T09:16:08.385Z,10.80
2022-09-26T09:19:15.720Z,8.80
2022-09-26T09:22:15.588Z,8.50
2022-09-26T09:25:10.377Z,7.30
2022-09-26T09:28:02.517Z,10.00
2022-09-26T09:30:50.862Z,6.40
2022-09-26T09:33:49.665Z,4.20
2022-09-26T09:36:51.639Z,6.40
2022-09-26T09:39:36.295Z,7.60
2022-09-26T09:42:51.441Z,4.90
2022-09-26T09:45:31.056Z,6.00
2022-09-26T09:47:59.141Z,5.10
2022-09-26T09:50:58.861Z,9.20
2022-09-26T09:53:41.779Z,2.90
2022-09-26T09:56:26.000Z,5.00
2022-09-26T09:59:15.461Z,3.90
2022-09-26T10:02:37.587Z,4.30
2022-09-26T10:05:29.004Z,3.00
2022-09-26T10:07:59.317Z,6.00
2022-09-26T10:11:11.656Z,4.00
2022-09-26T10:14:21.296Z,6.00
2022-09-26T10:17:10.882Z,3.60
2022-09-26T10:19:46.645Z,6.00
2022-09-26T10:22:18.782Z,5.70
2022-09-26T10:24:47.933Z,4.90
2022-09-26T10:27:25.812Z,7.10
2022-09-26T10:30:02.083Z,6.60
2022-09-26T10:35:20.494Z,2.50
2022-09-26T10:38:01.924Z,2.20
2022-09-26T10:40:47.208Z,4.30
2022-09-26T10:43:30.789Z,2.70
2022-09-26T10:46:17.466Z,8.30
2022-09-26T10:49:17.233Z,9.90
2022-09-26T10:52:18.876Z,5.30
2022-09-26T10:54:57.266Z,4.10
2022-09-26T10:57:33.695Z,5.30
2022-09-26T11:00:06.464Z,6.60
2022-09-26T11:02:36.713Z,11.10
2022-09-26T11:05:24.897Z,10.50
2022-09-26T11:08:14.154Z,9.60
2022-09-26T11:11:14.358Z,11.30
2022-09-26T11:13:59.125Z,11.10
2022-09-26T11:16:29.384Z,14.90
2022-09-26T11:19:26.932Z,10.00
2022-09-26T11:22:19.960Z,12.60
2022-09-26T11:25:03.588Z,9.80
2022-09-26T11:27:46.213Z,10.10
2022-09-26T11:30:23.085Z,10.00
2022-09-26T11:33:05.608Z,10.60
2022-09-26T11:35:53.421Z,9.10
2022-09-26T11:39:11.021Z,10.00
2022-09-26T11:42:01.556Z,11.00
2022-09-26T11:44:51.929Z,10.00
2022-09-26T11:47:38.606Z,10.40
2022-09-26T11:50:25.499Z,10.10
2022-09-26T11:53:52.862Z,10.20
2022-09-26T11:56:29.864Z,9.60
2022-09-26T11:59:28.544Z,10.10
2022-09-26T12:02:24.471Z,9.70
2022-09-26T12:05:17.209Z,9.30
2022-09-26T12:07:55.549Z,11.30
2022-09-26T12:11:10.025Z,14.50
2022-09-26T12:13:59.397Z,10.30
2022-09-26T12:16:45.844Z,10.20
2022-09-26T12:19:27.842Z,10.00
2022-09-26T12:22:14.286Z,11.10
2022-09-26T12:24:45.698Z,12.60
2022-09-26T12:27:26.299Z,11.40
2022-09-26T12:30:10.794Z,10.50
2022-09-26T12:33:01.567Z,12.10
2022-09-26T12:35:45.444Z,12.40
2022-09-26T12:38:32.479Z,13.40
2022-09-26T12:41:14.326Z,11.70
2022-09-26T12:43:51.226Z,9.80
2022-09-26T12:47:06.877Z,11.10
2022-09-26T12:49:49.647Z,13.30
2022-09-26T12:52:44.631Z,13.10
2022-09-26T12:55:37.566Z,12.10
2022-09-26T12:58:33.692Z,19.40
2022-09-26T13:01:23.891Z,15.90
2022-09-26T13:04:13.501Z,11.40
2022-09-26T13:07:07.579Z,12.70
2022-09-26T13:09:55.161Z,12.60
2022-09-26T13:12:46.991Z,13.90
2022-09-26T13:15:32.435Z,11.60
2022-09-26T13:18:12.924Z,13.30
2022-09-26T13:20:45.775Z,12.60
2022-09-26T13:23:27.569Z,13.10
2022-09-26T13:26:21.937Z,13.70
2022-09-26T13:29:16.726Z,16.50
2022-09-26T13:32:11.973Z,16.90
2022-09-26T13:34:51.380Z,14.10
2022-09-26T13:37:42.229Z,11.20
2022-09-26T13:40:43.064Z,11.00
2022-09-26T13:43:34.945Z,18.90
2022-09-26T13:46:34.737Z,10.70
2022-09-26T13:49:21.779Z,11.80
2022-09-26T13:54:44.202Z,12.30
2022-09-26T13:57:39.803Z,12.30
2022-09-26T14:00:26.630Z,12.20
2022-09-26T14:03:13.046Z,14.90
2022-09-26T14:05:46.726Z,23.90
2022-09-26T14:08:45.358Z,14.40
2022-09-26T14:11:19.310Z,14.70
2022-09-26T14:14:08.236Z,15.30
2022-09-26T14:16:37.008Z,14.50
2022-09-26T14:19:46.895Z,13.90
2022-09-26T14:22:19.136Z,15.80
2022-09-26T14:24:51.859Z,15.70
2022-09-26T14:27:37.993Z,14.50
2022-09-26T14:30:27.261Z,14.40
2022-09-26T14:33:02.519Z,13.10
2022-09-26T14:35:33.783Z,14.30
2022-09-26T14:38:12.985Z,17.70
2022-09-26T14:40:54.825Z,12.70
2022-09-26T14:43:25.018Z,13.80
2022-09-26T14:46:02.878Z,14.30
2022-09-26T14:48:38.843Z,14.20
2022-09-26T14:51:15.969Z,13.40
2022-09-26T14:53:52.975Z,14.90
2022-09-26T14:56:29.494Z,14.30
2022-09-26T15:01:45.377Z,15.90
2022-09-26T15:04:30.095Z,19.30
2022-09-26T15:07:03.015Z,14.00
2022-09-26T15:09:40.379Z,22.60
2022-09-26T15:12:23.785Z,18.70
2022-09-26T15:15:19.400Z,15.70
2022-09-26T15:17:53.896Z,19.50
2022-09-26T15:20:25.378Z,18.40
2022-09-26T15:22:57.390Z,19.90
2022-09-26T15:25:32.099Z,32.90
2022-09-26T15:28:01.463Z,14.80
2022-09-26T15:30:37.462Z,15.30
2022-09-26T15:33:07.503Z,21.80
2022-09-26T15:35:35.768Z,13.90
2022-09-26T15:38:11.814Z,17.50
2022-09-26T15:40:40.002Z,18.00
2022-09-26T15:43:20.453Z,15.70
2022-09-26T15:45:58.900Z,17.50
2022-09-26T15:48:29.775Z,15.40
2022-09-26T15:51:03.861Z,14.30
2022-09-26T15:53:40.069Z,37.50
2022-09-26T15:56:13.802Z,16.00
2022-09-26T15:59:00.935Z,16.30
2022-09-26T16:04:14.939Z,14.30
2022-09-26T16:07:12.112Z,19.90
2022-09-26T16:09:43.323Z,15.50
2022-09-26T16:12:29.022Z,16.20
2022-09-26T16:15:06.130Z,15.50
2022-09-26T16:17:37.581Z,20.40
2022-09-26T16:20:11.608Z,21.10
2022-09-26T16:22:51.244Z,15.50
2022-09-26T16:25:20.484Z,17.40
2022-09-26T16:27:58.528Z,18.20
2022-09-26T16:30:33.726Z,15.20
2022-09-26T16:33:08.085Z,19.20
2022-09-26T16:35:43.781Z,17.70
2022-09-26T16:38:31.182Z,15.90
2022-09-26T16:41:10.975Z,14.90
2022-09-26T16:43:39.930Z,19.40
2022-09-26T16:46:14.813Z,18.70
2022-09-26T16:48:56.257Z,13.70
2022-09-26T16:51:38.879Z,17.30
2022-09-26T16:54:07.674Z,14.90
2022-09-26T16:56:41.417Z,17.50
2022-09-26T16:59:17.752Z,18.00
2022-09-26T17:01:56.668Z,42.90
2022-09-26T17:04:34.763Z,21.00
2022-09-26T17:07:20.763Z,19.50
2022-09-26T17:09:48.756Z,18.90
2022-09-26T17:12:22.043Z,20.90
2022-09-26T17:14:52.066Z,16.70
2022-09-26T17:17:24.016Z,27.20
2022-09-26T17:19:59.151Z,18.00
2022-09-26T17:22:28.674Z,18.50
2022-09-26T17:24:57.066Z,18.30
2022-09-26T17:27:30.690Z,15.50
2022-09-26T17:30:01.557Z,15.40
2022-09-26T17:32:37.030Z,17.10
2022-09-26T17:35:13.454Z,13.80
2022-09-26T17:37:41.580Z,13.80
2022-09-26T17:40:17.139Z,13.10
2022-09-26T17:42:48.673Z,12.20
2022-09-26T17:45:16.693Z,12.50
2022-09-26T17:47:45.371Z,13.00
2022-09-26T17:50:40.129Z,11.20
2022-09-26T17:53:12.471Z,12.60
2022-09-26T17:55:40.496Z,13.00
2022-09-26T17:58:10.539Z,12.30
2022-09-26T18:00:40.436Z,13.10
2022-09-26T18:03:18.937Z,13.00
2022-09-26T18:05:47.456Z,12.90
2022-09-26T18:08:21.659Z,13.30
2022-09-26T18:10:53.127Z,17.50
2022-09-26T18:13:26.215Z,13.90
2022-09-26T18:15:56.107Z,14.20
2022-09-26T18:18:27.931Z,19.20
2022-09-26T18:20:57.334Z,19.00
2022-09-26T18:23:39.384Z,16.80
2022-09-26T18:26:09.764Z,14.90
2022-09-26T18:28:38.943Z,14.90
2022-09-26T18:31:11.504Z,14.60
2022-09-26T18:33:39.670Z,13.60
2022-09-26T18:36:12.762Z,18.60
2022-09-26T18:38:40.931Z,13.70
2022-09-26T18:41:10.696Z,11.40
2022-09-26T18:43:42.524Z,13.90
2022-09-26T18:46:16.939Z,12.10
2022-09-26T18:48:46.467Z,14.60
2022-09-26T18:51:14.817Z,18.20
2022-09-26T18:53:43.279Z,14.00
2022-09-26T18:56:30.691Z,13.10
2022-09-26T18:58:58.967Z,12.00
2022-09-26T19:01:39.454Z,11.50
2022-09-26T19:04:13.683Z,15.60
2022-09-26T19:06:59.431Z,12.40
2022-09-26T19:09:32.877Z,14.30
2022-09-26T19:12:02.312Z,13.40
2022-09-26T19:14:31.670Z,11.90
2022-09-26T19:16:59.920Z,10.80
2022-09-26T19:19:32.624Z,10.80
2022-09-26T19:22:10.870Z,12.20
2022-09-26T19:25:00.551Z,13.40
2022-09-26T19:28:30.704Z,11.40
2022-09-26T19:32:23.383Z,12.40
2022-09-26T19:36:15.223Z,13.20
2022-09-26T19:40:04.108Z,13.40
2022-09-26T19:43:52.895Z,11.20
2022-09-26T19:47:41.607Z,12.70
2022-09-26T19:51:13.942Z,12.50
2022-09-26T19:55:02.461Z,17.10
2022-09-26T19:58:52.578Z,17.70
2022-09-26T20:02:40.460Z,13.10
2022-09-26T20:05:57.946Z,12.30
2022-09-26T20:09:47.752Z,13.20
2022-09-26T20:13:36.622Z,11.70
2022-09-26T20:17:25.921Z,17.30
2022-09-26T20:21:21.391Z,15.20
2022-09-26T20:25:10.537Z,15.80
2022-09-26T20:28:59.864Z,17.60
2022-09-26T20:32:49.063Z,15.50
2022-09-26T20:36:40.658Z,15.30
2022-09-26T20:40:29.701Z,15.40
2022-09-26T20:44:17.920Z,14.40
2022-09-26T20:47:28.003Z,13.90
2022-09-26T20:51:25.909Z,13.30
2022-09-26T20:55:15.038Z,14.20
2022-09-26T20:59:04.543Z,13.20
2022-09-26T21:03:05.476Z,12.40
2022-09-26T21:06:54.462Z,14.10
2022-09-26T21:10:43.399Z,12.60
2022-09-26T21:14:32.285Z,13.70
2022-09-26T21:18:30.342Z,11.70
2022-09-26T21:22:22.434Z,11.00
2022-09-26T21:26:17.499Z,8.60
2022-09-26T21:30:06.403Z,6.50
2022-09-26T21:33:58.353Z,4.10
2022-09-26T21:37:47.195Z,3.40
2022-09-26T21:41:36.106Z,3.50
2022-09-26T21:45:27.402Z,2.50
2022-09-26T21:49:16.840Z,3.50
2022-09-26T21:53:08.861Z,2.00
2022-09-26T21:56:57.880Z,2.30
2022-09-26T22:00:46.995Z,1.80
2022-09-26T22:04:35.907Z,2.90
2022-09-26T22:08:25.004Z,2.60
2022-09-26T22:12:13.591Z,2.20
2022-09-26T22:16:02.612Z,1.40
2022-09-26T22:19:51.600Z,1.30
2022-09-26T22:23:40.472Z,2.20
2022-09-26T22:27:29.400Z,1.00
2022-09-26T22:31:18.329Z,1.20
2022-09-26T22:35:07.254Z,1.00
2022-09-26T22:38:56.198Z,2.00
2022-09-26T22:42:45.204Z,1.10
2022-09-26T22:46:34.166Z,1.20
2022-09-26T22:50:23.107Z,1.40
2022-09-26T22:54:11.603Z,1.00
2022-09-26T22:57:24.751Z,0.80
2022-09-26T23:01:13.527Z,0.70
2022-09-26T23:05:08.622Z,0.80
2022-09-26T23:08:57.296Z,0.60
2022-09-26T23:12:46.156Z,0.40
2022-09-26T23:16:35.144Z,0.50
2022-09-26T23:20:24.110Z,0.60
2022-09-26T23:24:12.752Z,0.90
2022-09-26T23:28:01.704Z,1.60
2022-09-26T23:31:50.559Z,1.70
2022-09-26T23:35:39.571Z,1.40
2022-09-26T23:39:28.517Z,1.20
2022-09-26T23:43:17.353Z,1.30
2022-09-26T23:47:06.275Z,1.80
2022-09-26T23:50:55.099Z,2.50
2022-09-26T23:54:44.040Z,2.00
2022-09-26T23:58:32.936Z,2.00
